Time;durP1;ratioP1;P1;durP2;ratioP2;P2;SDS_P1;SDS_P2;PMS_P1;PMS_P2;Temp;Humidity;BMP_temperature;BMP_pressure;BME280_temperature;BME280_humidity;BME280_pressure;Samples;Min_cycle;Max_cycle;Signal;HPM_P1;HPM_P2
2022/03/19 00:01:39;;;;;;;359.80;195.85;;;179.20;1331.20;;;;;;5096828;28;20390;-62
2022/03/19 00:04:05;;;;;;;359.77;196.93;;;179.30;1331.20;;;;;;5096829;28;20020;-60
2022/03/19 00:06:32;;;;;;;382.08;207.32;;;179.20;1356.80;;;;;;5096700;28;20028;-59
2022/03/19 00:08:58;;;;;;;387.25;206.75;;;179.20;1356.80;;;;;;5096927;28;20020;-60
2022/03/19 00:11:24;;;;;;;383.55;206.48;;;179.30;1356.80;;;;;;5096532;28;20039;-62
2022/03/19 00:13:49;;;;;;;375.45;203.02;;;179.20;1356.80;;;;;;5096580;28;20027;-61
2022/03/19 00:16:15;;;;;;;378.60;202.38;;;179.30;1356.80;;;;;;5096651;28;20028;-60
2022/03/19 00:18:41;;;;;;;384.58;205.93;;;179.20;1356.80;;;;;;5096828;28;20024;-60
2022/03/19 00:21:07;;;;;;;382.70;209.93;;;179.30;1356.80;;;;;;5096325;28;20024;-60
2022/03/19 00:23:33;;;;;;;370.92;204.32;;;179.20;1356.80;;;;;;5096439;28;20035;-60
2022/03/19 00:25:59;;;;;;;371.15;203.40;;;179.20;1356.80;;;;;;5096374;28;20107;-60
2022/03/19 00:28:25;;;;;;;380.75;199.70;;;179.20;1356.80;;;;;;5096227;28;20031;-61
2022/03/19 00:30:51;;;;;;;394.35;213.82;;;179.30;1356.80;;;;;;5096321;28;20028;-62
2022/03/19 00:33:17;;;;;;;382.08;208.25;;;179.20;1356.80;;;;;;5096368;28;20017;-59
2022/03/19 00:35:42;;;;;;;368.40;198.52;;;179.20;1382.40;;;;;;5096224;28;20408;-60
2022/03/19 00:38:08;;;;;;;353.90;190.20;;;179.20;1408.00;;;;;;5096304;28;20107;-59
2022/03/19 00:40:35;;;;;;;370.13;196.98;;;179.20;1408.00;;;;;;5096145;28;20032;-60
2022/03/19 00:43:01;;;;;;;358.58;196.73;;;179.20;1382.40;;;;;;5095847;28;20116;-59
2022/03/19 00:45:27;;;;;;;353.70;198.68;;;179.20;1408.00;;;;;;5095939;28;20060;-60
2022/03/19 00:47:53;;;;;;;370.38;205.45;;;179.20;1408.00;;;;;;5095860;28;20069;-59
2022/03/19 00:50:18;;;;;;;372.52;203.10;;;179.20;1382.40;;;;;;5095910;28;20032;-61
2022/03/19 00:52:44;;;;;;;360.02;196.68;;;179.30;1408.00;;;;;;5095885;28;20072;-59
2022/03/19 00:55:10;;;;;;;337.95;184.07;;;179.20;1382.40;;;;;;5095957;28;20061;-61
2022/03/19 00:57:43;;;;;;;348.27;185.23;;;179.30;1382.40;;;;;;5095775;28;20020;-59
2022/03/19 01:00:11;;;;;;;342.67;184.55;;;179.30;1382.40;;;;;;5095608;28;20393;-61
2022/03/19 01:02:39;;;;;;;311.40;169.43;;;179.30;1382.40;;;;;;5095698;28;20050;-62
2022/03/19 01:05:05;;;;;;;254.38;134.65;;;179.30;1356.80;;;;;;5095821;28;20020;-60
2022/03/19 01:07:30;;;;;;;217.57;113.57;;;179.30;1356.80;;;;;;5095661;28;20087;-61
2022/03/19 01:09:56;;;;;;;179.10;97.72;;;179.20;1382.40;;;;;;5095522;28;20103;-60
2022/03/19 01:12:22;;;;;;;175.50;93.25;;;179.20;1382.40;;;;;;5095561;28;20028;-62
2022/03/19 01:14:48;;;;;;;167.90;91.88;;;179.20;1382.40;;;;;;5095390;28;20024;-60
2022/03/19 01:17:13;;;;;;;152.13;83.57;;;179.20;1382.40;;;;;;5095435;28;20034;-62
2022/03/19 01:19:54;;;;;;;151.25;80.07;;;179.20;1382.40;;;;;;5095384;28;20024;-59
2022/03/19 01:22:24;;;;;;;140.20;75.85;;;179.20;1382.40;;;;;;5095217;28;20034;-58
2022/03/19 01:24:50;;;;;;;137.32;76.28;;;154.50;1382.40;;;;;;5095349;28;20024;-58
2022/03/19 01:27:16;;;;;;;140.68;77.18;;;154.50;1382.40;;;;;;5095157;28;20032;-59
2022/03/19 01:29:42;;;;;;;141.57;77.57;;;154.40;1408.00;;;;;;5094979;28;20036;-59
2022/03/19 01:32:08;;;;;;;141.88;78.43;;;154.40;1382.40;;;;;;5094925;28;20035;-58
2022/03/19 01:34:34;;;;;;;133.68;75.47;;;154.50;1408.00;;;;;;5095024;28;20028;-58
2022/03/19 01:37:00;;;;;;;131.93;73.25;;;154.50;1382.40;;;;;;5094973;28;20406;-59
2022/03/19 01:39:25;;;;;;;126.88;71.30;;;154.50;1382.40;;;;;;5094767;28;20035;-58
2022/03/19 01:41:51;;;;;;;117.95;67.90;;;154.50;1382.40;;;;;;5094909;28;20039;-58
2022/03/19 01:44:21;;;;;;;111.97;64.95;;;154.40;1382.40;;;;;;5095001;28;20032;-58
2022/03/19 01:46:55;;;;;;;116.00;67.68;;;154.40;1382.40;;;;;;5094941;28;20040;-58
2022/03/19 01:49:20;;;;;;;116.75;68.78;;;154.40;1382.40;;;;;;5094554;28;20066;-61
2022/03/19 01:51:46;;;;;;;127.28;72.72;;;154.40;1382.40;;;;;;5094685;28;20052;-58
2022/03/19 01:54:12;;;;;;;132.60;75.28;;;154.40;1382.40;;;;;;5094860;28;20449;-58
2022/03/19 01:56:38;;;;;;;126.30;68.55;;;154.40;1382.40;;;;;;5094599;28;20040;-62
2022/03/19 01:59:06;;;;;;;125.45;72.10;;;154.30;1408.00;;;;;;5094859;28;20038;-59
2022/03/19 02:01:32;;;;;;;121.85;70.80;;;154.30;1382.40;;;;;;5094466;28;20043;-62
2022/03/19 02:03:58;;;;;;;124.32;71.72;;;154.30;1382.40;;;;;;5094671;28;20108;-58
2022/03/19 02:06:26;;;;;;;121.75;70.00;;;154.40;1408.00;;;;;;5094462;28;20127;-58
2022/03/19 02:08:53;;;;;;;119.05;67.22;;;154.30;1408.00;;;;;;5094532;28;20153;-58
2022/03/19 02:11:20;;;;;;;125.00;66.53;;;154.30;1408.00;;;;;;5094438;28;20042;-63
2022/03/19 02:13:46;;;;;;;124.63;71.13;;;154.30;1382.40;;;;;;5094559;28;20107;-59
2022/03/19 02:16:12;;;;;;;123.03;69.32;;;154.30;1382.40;;;;;;5094647;28;20079;-60
2022/03/19 02:18:38;;;;;;;128.93;69.43;;;154.30;1408.00;;;;;;5094378;28;20628;-59
2022/03/19 02:21:04;;;;;;;127.55;69.20;;;154.20;1408.00;;;;;;5093911;28;20081;-62
2022/03/19 02:26:14;;;;;;;124.72;68.03;;;154.20;1408.00;;;;;;5094186;28;20039;-62
2022/03/19 02:28:39;;;;;;;127.10;70.90;;;154.20;1408.00;;;;;;5094293;28;20028;-60
2022/03/19 02:31:05;;;;;;;130.82;70.88;;;154.30;1408.00;;;;;;5094159;28;20115;-61
2022/03/19 02:33:31;;;;;;;128.63;69.68;;;154.20;1408.00;;;;;;5094140;28;20389;-61
2022/03/19 02:35:56;;;;;;;140.23;75.65;;;154.20;1408.00;;;;;;5093893;28;20028;-59
2022/03/19 02:38:22;;;;;;;129.88;73.82;;;154.20;1408.00;;;;;;5094044;28;20020;-59
2022/03/19 02:40:48;;;;;;;131.95;75.30;;;154.20;1408.00;;;;;;5094072;28;20107;-60
2022/03/19 02:43:14;;;;;;;132.77;74.93;;;154.20;1408.00;;;;;;5093793;28;20047;-59
2022/03/19 02:45:40;;;;;;;140.57;75.80;;;154.10;1433.60;;;;;;5094133;28;20024;-61
2022/03/19 02:48:06;;;;;;;132.70;75.75;;;154.20;1433.60;;;;;;5093890;28;20028;-59
2022/03/19 02:50:37;;;;;;;136.27;76.68;;;154.20;1408.00;;;;;;5093750;28;20366;-60
2022/03/19 02:53:05;;;;;;;129.20;73.72;;;154.10;1433.60;;;;;;5093740;28;20069;-60
2022/03/19 02:55:38;;;;;;;138.23;75.38;;;154.10;1433.60;;;;;;5093936;28;20032;-59
2022/03/19 02:58:06;;;;;;;137.25;77.22;;;154.10;1433.60;;;;;;5093599;28;20103;-59
2022/03/19 03:00:32;;;;;;;143.43;78.28;;;154.20;1433.60;;;;;;5093595;28;20052;-58
2022/03/19 03:02:58;;;;;;;137.18;77.55;;;154.10;1433.60;;;;;;5093742;28;20020;-59
2022/03/19 03:05:24;;;;;;;131.93;75.03;;;154.20;1408.00;;;;;;5093658;28;20035;-59
2022/03/19 03:07:50;;;;;;;130.73;75.55;;;154.20;1433.60;;;;;;5093843;28;20024;-58
2022/03/19 03:10:17;;;;;;;135.98;72.28;;;154.20;1433.60;;;;;;5093688;28;20024;-58
2022/03/19 03:12:43;;;;;;;121.03;67.90;;;154.10;1433.60;;;;;;5093593;28;20465;-59
2022/03/19 03:15:09;;;;;;;124.97;67.93;;;154.10;1433.60;;;;;;5093625;28;20031;-58
2022/03/19 03:17:35;;;;;;;120.18;67.07;;;154.20;1433.60;;;;;;5093550;28;20062;-59
2022/03/19 03:20:02;;;;;;;115.47;64.22;;;154.10;1433.60;;;;;;5093210;28;20085;-59
2022/03/19 03:22:29;;;;;;;118.00;64.88;;;154.10;1459.20;;;;;;5093233;28;20021;-59
2022/03/19 03:24:55;;;;;;;111.38;59.70;;;154.20;1433.60;;;;;;5093433;28;20020;-59
2022/03/19 03:27:21;;;;;;;108.45;59.17;;;154.10;1433.60;;;;;;5093117;28;20020;-62
2022/03/19 03:29:47;;;;;;;112.50;58.53;;;154.20;1433.60;;;;;;5093643;28;20033;-59
2022/03/19 03:32:13;;;;;;;105.63;54.83;;;154.20;1433.60;;;;;;5094416;28;20024;-60
2022/03/19 03:34:40;;;;;;;97.68;54.60;;;154.20;1433.60;;;;;;5097517;28;20466;-59
2022/03/19 03:37:05;;;;;;;100.20;56.55;;;154.20;1433.60;;;;;;5097509;28;20070;-61
2022/03/19 03:39:31;;;;;;;102.22;54.90;;;154.20;1459.20;;;;;;5097479;28;20465;-59
2022/03/19 03:41:57;;;;;;;106.82;59.15;;;154.20;1459.20;;;;;;5097229;28;20024;-59
2022/03/19 03:44:22;;;;;;;99.97;55.90;;;154.20;1459.20;;;;;;5097301;28;20385;-60
2022/03/19 03:46:48;;;;;;;104.05;57.67;;;154.20;1459.20;;;;;;5097347;28;20016;-59
2022/03/19 03:49:14;;;;;;;108.30;59.63;;;154.20;1459.20;;;;;;5097264;28;20441;-59
2022/03/19 03:51:40;;;;;;;109.25;60.15;;;154.20;1459.20;;;;;;5096956;28;20085;-60
2022/03/19 03:54:07;;;;;;;106.25;61.55;;;154.20;1459.20;;;;;;5078600;28;20063;-59
2022/03/19 03:56:34;;;;;;;110.78;63.65;;;154.30;1459.20;;;;;;5096862;28;20032;-59
2022/03/19 03:59:00;;;;;;;114.90;63.67;;;154.20;1459.20;;;;;;5096896;28;20135;-62
2022/03/19 04:01:26;;;;;;;106.22;60.67;;;154.30;1459.20;;;;;;5096885;28;20048;-59
2022/03/19 04:03:51;;;;;;;112.53;63.63;;;154.30;1484.80;;;;;;5096986;28;20023;-64
2022/03/19 04:06:17;;;;;;;111.25;62.20;;;154.30;1484.80;;;;;;5096767;28;20386;-58
2022/03/19 04:08:43;;;;;;;125.45;66.95;;;154.30;1484.80;;;;;;5097023;28;20034;-61
2022/03/19 04:11:09;;;;;;;122.72;67.55;;;154.30;1459.20;;;;;;5096494;28;20393;-59
2022/03/19 04:13:34;;;;;;;133.68;68.13;;;154.40;1484.80;;;;;;5096973;28;20074;-60
2022/03/19 04:16:00;;;;;;;131.00;69.18;;;154.40;1484.80;;;;;;5096569;28;20032;-59
2022/03/19 04:18:26;;;;;;;135.90;73.85;;;154.40;1484.80;;;;;;5096708;28;20051;-59
2022/03/19 04:20:53;;;;;;;139.90;75.45;;;154.40;1484.80;;;;;;5096565;28;20487;-60
2022/03/19 04:23:20;;;;;;;145.73;75.70;;;154.40;1484.80;;;;;;5096758;28;20028;-60
2022/03/19 04:25:46;;;;;;;130.63;73.65;;;154.50;1484.80;;;;;;5096421;28;20016;-60
2022/03/19 04:28:12;;;;;;;130.82;72.40;;;154.50;1484.80;;;;;;5096458;28;20035;-61
2022/03/19 04:30:39;;;;;;;144.57;75.25;;;179.20;1484.80;;;;;;5096345;28;20398;-60
2022/03/19 04:33:05;;;;;;;139.18;74.63;;;154.50;1484.80;;;;;;5096377;28;20028;-60
2022/03/19 04:38:18;;;;;;;138.32;78.10;;;179.20;1484.80;;;;;;5096619;28;20416;-60
2022/03/19 04:40:45;;;;;;;143.63;78.28;;;179.30;1484.80;;;;;;5096023;28;20058;-61
2022/03/19 04:43:12;;;;;;;142.98;81.47;;;179.20;1484.80;;;;;;5095740;28;20455;-61
2022/03/19 04:45:39;;;;;;;145.00;80.25;;;179.30;1459.20;;;;;;5096229;28;20370;-60
2022/03/19 04:48:06;;;;;;;150.82;84.82;;;179.30;1459.20;;;;;;5096081;28;20019;-60
2022/03/19 04:50:34;;;;;;;155.43;83.45;;;179.20;1484.80;;;;;;5095913;28;20063;-60
2022/03/19 04:53:00;;;;;;;152.85;84.65;;;179.20;1459.20;;;;;;5095354;28;20355;-61
2022/03/19 04:55:26;;;;;;;158.52;86.82;;;179.30;1459.20;;;;;;5096021;28;20098;-59
2022/03/19 04:57:52;;;;;;;160.23;88.78;;;179.20;1433.60;;;;;;5095388;28;20046;-59
2022/03/19 05:00:20;;;;;;;160.77;84.45;;;179.20;1433.60;;;;;;5095473;28;20470;-61
2022/03/19 05:02:45;;;;;;;164.07;85.43;;;179.20;1433.60;;;;;;5095580;28;20470;-59
2022/03/19 05:05:12;;;;;;;165.25;85.15;;;154.50;1433.60;;;;;;5095553;28;20031;-63
2022/03/19 05:07:39;;;;;;;166.10;86.50;;;179.20;1408.00;;;;;;5095781;28;20374;-61
2022/03/19 05:12:50;;;;;;;160.07;84.22;;;179.20;1408.00;;;;;;5095941;28;20030;-59
2022/03/19 05:15:17;;;;;;;150.15;78.47;;;179.20;1408.00;;;;;;5095384;28;20024;-59
2022/03/19 05:17:44;;;;;;;141.48;75.65;;;179.20;1408.00;;;;;;5095393;28;20099;-59
2022/03/19 05:20:12;;;;;;;151.75;76.50;;;179.20;1408.00;;;;;;5094925;28;20518;-59
2022/03/19 05:22:37;;;;;;;148.13;75.03;;;179.20;1408.00;;;;;;5095609;28;20370;-59
2022/03/19 05:25:05;;;;;;;145.70;74.38;;;179.20;1408.00;;;;;;5095148;28;20032;-58
2022/03/19 05:27:31;;;;;;;136.73;69.75;;;179.20;1408.00;;;;;;5095238;28;20019;-59
2022/03/19 05:29:58;;;;;;;135.65;69.50;;;179.30;1408.00;;;;;;5094978;28;20484;-59
2022/03/19 05:32:24;;;;;;;135.75;69.55;;;179.30;1408.00;;;;;;5095107;28;20028;-59
2022/03/19 05:34:50;;;;;;;133.68;70.03;;;179.30;1408.00;;;;;;5094819;28;20131;-59
2022/03/19 05:37:17;;;;;;;135.52;69.03;;;179.30;1408.00;;;;;;5094933;28;20076;-59
2022/03/19 05:39:43;;;;;;;126.95;68.80;;;179.30;1408.00;;;;;;5094918;28;20099;-58
2022/03/19 05:42:09;;;;;;;138.32;72.10;;;179.30;1408.00;;;;;;5094836;28;20047;-59
2022/03/19 05:44:35;;;;;;;138.52;73.25;;;179.20;1408.00;;;;;;5094826;28;20024;-59
2022/03/19 05:47:01;;;;;;;151.65;81.20;;;179.20;1408.00;;;;;;5094830;28;20028;-59
2022/03/19 05:49:28;;;;;;;144.55;82.65;;;179.20;1408.00;;;;;;5093958;28;20587;-58
2022/03/19 05:51:55;;;;;;;142.25;79.22;;;154.50;1433.60;;;;;;5093972;28;20063;-59
2022/03/19 05:54:22;;;;;;;143.20;80.70;;;179.20;1433.60;;;;;;5094045;28;20447;-58
2022/03/19 05:56:47;;;;;;;146.73;80.97;;;154.50;1459.20;;;;;;5094042;28;20024;-58
2022/03/19 05:59:13;;;;;;;150.52;82.30;;;179.20;1433.60;;;;;;5094586;28;20372;-58
2022/03/19 06:01:41;;;;;;;140.18;79.18;;;179.20;1433.60;;;;;;5094496;28;20047;-58
2022/03/19 06:04:08;;;;;;;153.35;84.85;;;154.50;1459.20;;;;;;5094261;28;20040;-60
2022/03/19 06:06:34;;;;;;;160.68;92.32;;;179.20;1459.20;;;;;;5093831;28;20085;-60
2022/03/19 06:09:00;;;;;;;195.15;103.40;;;179.20;1459.20;;;;;;5094377;28;20103;-60
2022/03/19 06:11:26;;;;;;;239.43;125.85;;;179.20;1484.80;;;;;;5094067;28;20558;-60
2022/03/19 06:13:52;;;;;;;279.30;142.18;;;179.20;1484.80;;;;;;5095066;28;20031;-60
2022/03/19 06:16:18;;;;;;;312.00;150.10;;;179.30;1484.80;;;;;;5094490;28;20028;-60
2022/03/19 06:18:46;;;;;;;308.88;150.35;;;179.30;1510.40;;;;;;5094316;28;20465;-60
2022/03/19 06:21:12;;;;;;;228.80;113.68;;;179.40;1484.80;;;;;;5094189;28;20031;-60
2022/03/19 06:23:38;;;;;;;164.85;85.15;;;179.50;1484.80;;;;;;5094394;28;20024;-59
2022/03/19 06:26:04;;;;;;;165.55;85.65;;;179.60;1484.80;;;;;;5094449;28;20466;-60
2022/03/19 06:28:29;;;;;;;118.38;63.65;;;179.70;1459.20;;;;;;5094176;28;20111;-66
2022/03/19 06:30:55;;;;;;;103.78;60.35;;;179.80;1484.80;;;;;;5094679;28;20046;-60
2022/03/19 06:33:21;;;;;;;95.57;57.60;;;179.90;1459.20;;;;;;5094116;28;20039;-60
2022/03/19 06:38:31;;;;;;;86.93;53.45;;;180.00;1459.20;;;;;;5094218;28;20035;-60
2022/03/19 06:41:00;;;;;;;86.18;53.60;;;180.00;1459.20;;;;;;5094070;28;20024;-60
2022/03/19 06:43:27;;;;;;;89.63;51.38;;;180.10;1459.20;;;;;;5094149;28;20027;-61
2022/03/19 06:45:58;;;;;;;81.35;52.08;;;180.10;1459.20;;;;;;5093978;28;20115;-65
2022/03/19 06:48:25;;;;;;;71.72;45.00;;;204.80;1459.20;;;;;;5094050;28;20085;-60
2022/03/19 06:50:51;;;;;;;81.22;49.65;;;204.80;1459.20;;;;;;5093796;28;20048;-60
2022/03/19 06:53:17;;;;;;;75.30;46.92;;;204.90;1459.20;;;;;;5094174;28;20131;-60
2022/03/19 06:55:42;;;;;;;84.65;51.35;;;205.00;1433.60;;;;;;5093850;28;20028;-59
2022/03/19 06:58:08;;;;;;;81.60;49.33;;;205.10;1433.60;;;;;;5094034;28;20454;-65
2022/03/19 07:00:35;;;;;;;78.85;47.65;;;205.20;1433.60;;;;;;5093674;28;20040;-60
2022/03/19 07:03:01;;;;;;;69.07;42.83;;;205.20;1433.60;;;;;;5093871;28;20111;-60
2022/03/19 07:05:29;;;;;;;65.38;41.53;;;205.20;1433.60;;;;;;5093941;28;20052;-60
2022/03/19 07:07:56;;;;;;;66.53;41.53;;;205.30;1459.20;;;;;;5097671;28;20433;-60
2022/03/19 07:10:22;;;;;;;59.67;39.40;;;205.30;1433.60;;;;;;5097940;28;20032;-60
2022/03/19 07:12:57;;;;;;;60.67;37.78;;;205.40;1433.60;;;;;;5079143;28;20035;-62
2022/03/19 07:15:27;;;;;;;63.03;40.20;;;205.50;1433.60;;;;;;5097839;28;20103;-60
2022/03/19 07:17:54;;;;;;;59.25;38.42;;;205.60;1433.60;;;;;;5097625;28;20361;-60
2022/03/19 07:20:20;;;;;;;61.92;39.35;;;205.70;1433.60;;;;;;5097805;28;20016;-60
2022/03/19 07:22:58;;;;;;;54.15;36.67;;;230.50;1433.60;;;;;;5097844;28;20428;-60
2022/03/19 07:25:26;;;;;;;59.58;39.28;;;230.60;1408.00;;;;;;5097495;28;20016;-60
2022/03/19 07:27:54;;;;;;;66.13;38.28;;;230.70;1459.20;;;;;;5078883;28;20062;-60
2022/03/19 07:30:20;;;;;;;60.75;40.10;;;230.80;1433.60;;;;;;5097439;28;20036;-60
2022/03/19 07:32:46;;;;;;;57.70;37.50;;;230.90;1408.00;;;;;;5097540;28;20024;-60
2022/03/19 07:35:13;;;;;;;56.17;38.30;;;231.00;1408.00;;;;;;5097603;28;20505;-59
2022/03/19 07:37:41;;;;;;;57.10;39.22;;;231.10;1382.40;;;;;;5079235;28;20038;-59
2022/03/19 07:40:08;;;;;;;62.70;39.20;;;231.20;1382.40;;;;;;5097384;28;20493;-60
2022/03/19 07:42:35;;;;;;;53.63;37.03;;;231.30;1382.40;;;;;;5097491;28;20020;-60
2022/03/19 07:45:02;;;;;;;51.83;34.60;;;256.10;1382.40;;;;;;5097341;28;20350;-62
2022/03/19 07:47:29;;;;;;;52.08;36.95;;;256.30;1356.80;;;;;;5097407;28;20099;-60
2022/03/19 07:49:55;;;;;;;53.47;35.05;;;256.30;1356.80;;;;;;5096997;28;20107;-60
2022/03/19 07:52:21;;;;;;;49.13;33.75;;;256.50;1331.20;;;;;;5097045;28;20068;-59
2022/03/19 07:54:47;;;;;;;49.92;34.20;;;256.70;1331.20;;;;;;5097146;28;20098;-60
2022/03/19 07:57:13;;;;;;;47.47;33.13;;;256.80;1331.20;;;;;;5097016;28;20031;-60
2022/03/19 07:59:39;;;;;;;52.33;36.22;;;256.90;1305.60;;;;;;5096853;28;20057;-60
2022/03/19 08:02:05;;;;;;;65.95;42.15;;;281.60;1331.20;;;;;;5096767;28;20074;-60
2022/03/19 08:04:31;;;;;;;57.20;37.65;;;281.60;1331.20;;;;;;5096810;28;20024;-60
2022/03/19 08:06:57;;;;;;;50.72;33.15;;;281.70;1305.60;;;;;;5097104;28;20082;-60
2022/03/19 08:09:23;;;;;;;48.15;33.28;;;281.80;1305.60;;;;;;5096950;28;20070;-61
2022/03/19 08:11:51;;;;;;;45.50;32.83;;;281.90;1305.60;;;;;;5096761;28;20067;-60
2022/03/19 08:14:18;;;;;;;48.42;34.00;;;282.00;1280.00;;;;;;5096663;28;20022;-60
2022/03/19 08:16:47;;;;;;;50.00;33.63;;;282.10;1305.60;;;;;;5096811;28;20055;-60
2022/03/19 08:19:14;;;;;;;42.33;30.95;;;282.10;1305.60;;;;;;5095978;28;20039;-60
2022/03/19 08:21:44;;;;;;;44.45;31.90;;;282.20;1280.00;;;;;;5096506;28;20088;-60
2022/03/19 08:24:11;;;;;;;49.03;33.25;;;282.30;1280.00;;;;;;5096642;28;20038;-60
2022/03/19 08:26:38;;;;;;;45.17;31.48;;;282.30;1280.00;;;;;;5096576;28;20107;-65
2022/03/19 08:29:04;;;;;;;48.10;31.98;;;282.40;1280.00;;;;;;5096548;28;20051;-60
2022/03/19 08:31:31;;;;;;;45.63;32.17;;;282.50;1280.00;;;;;;5096474;28;20436;-61
2022/03/19 08:33:57;;;;;;;43.55;32.45;;;307.20;1280.00;;;;;;5096408;28;20080;-61
2022/03/19 08:36:24;;;;;;;45.03;31.27;;;307.30;1254.40;;;;;;5096203;28;20047;-60
2022/03/19 08:41:34;;;;;;;45.40;29.75;;;307.50;1254.40;;;;;;5096340;28;20043;-60
2022/03/19 08:44:01;;;;;;;44.05;31.55;;;307.50;1254.40;;;;;;5096640;28;20079;-60
2022/03/19 08:46:27;;;;;;;45.38;30.30;;;307.50;1254.40;;;;;;5095956;28;20470;-60
2022/03/19 08:48:53;;;;;;;43.28;29.25;;;307.70;1254.40;;;;;;5077471;28;20036;-59
2022/03/19 08:54:03;;;;;;;45.20;29.33;;;307.70;1254.40;;;;;;5096614;28;20031;-60
2022/03/19 08:56:33;;;;;;;39.75;28.52;;;307.70;1228.80;;;;;;5096023;28;20050;-60
2022/03/19 08:59:00;;;;;;;39.40;27.65;;;307.80;1228.80;;;;;;5096065;28;20024;-61
2022/03/19 09:01:25;;;;;;;37.25;27.02;;;307.90;1228.80;;;;;;5095394;28;20070;-60
2022/03/19 09:03:52;;;;;;;41.00;27.30;;;307.90;1228.80;;;;;;5095943;28;20452;-60
2022/03/19 09:06:18;;;;;;;38.20;27.40;;;307.90;1203.20;;;;;;5095597;28;20093;-60
2022/03/19 09:08:45;;;;;;;42.08;27.80;;;308.00;1203.20;;;;;;5095916;28;20466;-60
2022/03/19 09:11:12;;;;;;;37.83;26.50;;;308.00;1203.20;;;;;;5095581;28;20123;-64
2022/03/19 09:13:38;;;;;;;39.35;27.73;;;308.00;1203.20;;;;;;5095126;28;20027;-60
2022/03/19 09:16:05;;;;;;;40.35;27.23;;;308.10;1203.20;;;;;;5095936;28;20028;-60
2022/03/19 09:18:31;;;;;;;38.92;27.40;;;332.80;1203.20;;;;;;5095427;28;20107;-60
2022/03/19 09:20:57;;;;;;;45.20;27.90;;;332.80;1203.20;;;;;;5095423;28;20028;-60
2022/03/19 09:23:23;;;;;;;38.28;27.38;;;332.90;1203.20;;;;;;5094940;28;20038;-60
2022/03/19 09:25:49;;;;;;;42.70;28.25;;;333.00;1203.20;;;;;;5095446;28;20111;-61
2022/03/19 09:28:15;;;;;;;43.85;28.50;;;333.00;1203.20;;;;;;5095193;28;20104;-60
2022/03/19 09:30:41;;;;;;;39.08;26.17;;;333.10;1177.60;;;;;;5094056;28;20044;-60
2022/03/19 09:33:07;;;;;;;33.90;23.98;;;333.10;1177.60;;;;;;5095557;28;20024;-60
2022/03/19 09:35:33;;;;;;;34.83;25.27;;;333.10;1177.60;;;;;;5095239;28;20028;-60
2022/03/19 09:37:59;;;;;;;33.90;24.00;;;333.20;1152.00;;;;;;5095257;28;20497;-60
2022/03/19 09:40:25;;;;;;;35.63;23.40;;;333.20;1152.00;;;;;;5094970;28;20047;-60
2022/03/19 09:42:53;;;;;;;35.80;23.23;;;333.30;1152.00;;;;;;5095127;28;20031;-60
2022/03/19 09:45:21;;;;;;;33.63;23.60;;;333.30;1152.00;;;;;;5095522;28;20353;-59
2022/03/19 09:47:48;;;;;;;30.98;22.73;;;333.30;1152.00;;;;;;5094970;28;20055;-60
2022/03/19 09:50:14;;;;;;;29.58;22.13;;;333.40;1126.40;;;;;;5094829;28;20032;-60
2022/03/19 09:52:43;;;;;;;30.80;21.83;;;333.40;1126.40;;;;;;5095398;28;20476;-60
2022/03/19 09:55:14;;;;;;;28.20;21.55;;;333.50;1126.40;;;;;;5094481;28;20023;-60
2022/03/19 09:57:40;;;;;;;30.13;20.55;;;333.60;1126.40;;;;;;5094909;28;20032;-60
2022/03/19 10:00:07;;;;;;;29.88;19.50;;;333.60;1100.80;;;;;;5094432;28;20036;-60
2022/03/19 10:02:33;;;;;;;28.58;19.02;;;333.70;1100.80;;;;;;5094730;28;20016;-64
2022/03/19 10:08:35;;;;;;;25.13;18.55;;;333.60;1100.80;;;;;;5095192;28;20023;-60
2022/03/19 10:10:33;;;;;;;27.55;18.52;;;333.60;1075.20;;;;;;5094615;28;20461;-62
2022/03/19 10:12:59;;;;;;;27.42;20.20;;;333.60;1075.20;;;;;;5094550;28;20355;-60
2022/03/19 10:15:27;;;;;;;26.38;18.77;;;333.60;1049.60;;;;;;5094435;28;20526;-60
2022/03/19 10:17:59;;;;;;;29.05;19.98;;;333.60;1049.60;;;;;;5094242;28;20450;-60
2022/03/19 10:20:25;;;;;;;25.85;16.80;;;333.60;1024.00;;;;;;5094684;28;20047;-60
2022/03/19 10:22:51;;;;;;;25.17;16.55;;;333.70;1024.00;;;;;;5094284;28;20024;-64
2022/03/19 10:25:19;;;;;;;26.60;17.73;;;358.40;998.40;;;;;;5094421;28;20027;-61
2022/03/19 10:27:46;;;;;;;25.35;16.60;;;358.40;1024.00;;;;;;5094811;28;20362;-64
2022/03/19 10:30:19;;;;;;;30.02;18.75;;;358.40;998.40;;;;;;5094231;28;20479;-60
2022/03/19 10:32:58;;;;;;;24.40;16.80;;;358.40;998.40;;;;;;5094023;28;20036;-64
2022/03/19 10:35:25;;;;;;;22.73;17.25;;;358.40;998.40;;;;;;5094192;28;20020;-60
2022/03/19 10:37:52;;;;;;;28.35;17.30;;;358.50;998.40;;;;;;5094084;28;20028;-60
2022/03/19 10:40:19;;;;;;;31.02;18.77;;;358.50;998.40;;;;;;5094200;28;20028;-60
2022/03/19 10:42:44;;;;;;;26.67;20.13;;;358.50;998.40;;;;;;5093439;28;20016;-60
2022/03/19 10:45:12;;;;;;;24.98;18.92;;;358.50;998.40;;;;;;5093702;28;20031;-60
2022/03/19 10:47:43;;;;;;;29.30;18.00;;;358.50;972.80;;;;;;5094080;28;20024;-64
2022/03/19 10:50:11;;;;;;;27.52;17.15;;;358.50;972.80;;;;;;5094052;28;20082;-61
2022/03/19 10:52:37;;;;;;;28.65;15.27;;;358.60;972.80;;;;;;5093770;28;20016;-60
2022/03/19 10:55:04;;;;;;;22.35;16.10;;;358.60;947.20;;;;;;5093578;28;20028;-61
2022/03/19 10:57:31;;;;;;;22.52;15.77;;;358.60;947.20;;;;;;5094229;28;20489;-60
2022/03/19 10:59:57;;;;;;;20.17;15.23;;;358.40;947.20;;;;;;5093705;28;20131;-60
2022/03/19 11:02:28;;;;;;;22.55;15.10;;;358.40;921.60;;;;;;5093668;28;20050;-60
2022/03/19 11:04:57;;;;;;;24.98;16.23;;;358.40;921.60;;;;;;5091863;28;20409;-59
2022/03/19 11:07:25;;;;;;;25.35;16.92;;;358.40;921.60;;;;;;5092183;28;20020;-60
2022/03/19 11:09:55;;;;;;;22.85;16.27;;;358.40;947.20;;;;;;5093438;28;20492;-59
2022/03/19 11:12:25;;;;;;;24.90;17.23;;;358.40;947.20;;;;;;5093291;28;20459;-61
2022/03/19 11:14:53;;;;;;;21.63;16.15;;;358.40;947.20;;;;;;5075833;28;20032;-61
2022/03/19 11:17:33;;;;;;;22.92;16.17;;;358.40;921.60;;;;;;5093778;28;20024;-60
2022/03/19 11:20:02;;;;;;;26.80;18.02;;;333.70;921.60;;;;;;5093116;28;20107;-60
2022/03/19 11:22:41;;;;;;;27.70;18.65;;;358.40;921.60;;;;;;5092936;28;20024;-60
2022/03/19 11:25:29;;;;;;;24.63;17.92;;;358.40;921.60;;;;;;5093200;28;20016;-59
2022/03/19 11:28:06;;;;;;;34.08;21.33;;;358.40;947.20;;;;;;5093134;28;20031;-60
2022/03/19 11:30:36;;;;;;;29.10;18.77;;;358.40;947.20;;;;;;5073425;28;20025;-62
2022/03/19 11:33:06;;;;;;;23.05;16.70;;;358.60;921.60;;;;;;5073704;28;20107;-62
2022/03/19 11:35:34;;;;;;;24.50;16.52;;;358.60;921.60;;;;;;5089816;28;20038;-62
2022/03/19 11:38:01;;;;;;;26.27;17.58;;;358.60;921.60;;;;;;5093492;28;20115;-63
2022/03/19 11:40:29;;;;;;;22.10;16.65;;;358.60;921.60;;;;;;5093303;28;20489;-60
2022/03/19 11:42:56;;;;;;;24.05;16.25;;;358.60;921.60;;;;;;5093509;28;20103;-60
2022/03/19 11:45:22;;;;;;;23.73;16.83;;;358.60;921.60;;;;;;5093230;28;20500;-62
2022/03/19 11:47:48;;;;;;;25.60;16.27;;;358.60;921.60;;;;;;5093409;28;20527;-62
2022/03/19 11:50:24;;;;;;;23.75;16.75;;;358.60;921.60;;;;;;5093299;28;20028;-60
2022/03/19 11:53:02;;;;;;;24.92;16.58;;;358.60;921.60;;;;;;5093891;28;20545;-60
2022/03/19 11:55:31;;;;;;;25.42;17.95;;;358.60;896.00;;;;;;5096990;28;20043;-59
2022/03/19 11:58:03;;;;;;;23.98;15.80;;;358.80;921.60;;;;;;5093796;28;20024;-60
2022/03/19 12:00:36;;;;;;;26.70;17.48;;;358.90;896.00;;;;;;5093682;28;20066;-62
2022/03/19 12:03:13;;;;;;;23.45;17.33;;;358.90;896.00;;;;;;5096005;28;20067;-62
2022/03/19 12:05:48;;;;;;;30.63;21.60;;;358.90;896.00;;;;;;5094172;28;20024;-63
2022/03/19 12:08:21;;;;;;;25.58;17.40;;;358.90;896.00;;;;;;5096414;28;20062;-61
2022/03/19 12:11:01;;;;;;;25.98;16.98;;;358.90;896.00;;;;;;5096354;28;20035;-62
2022/03/19 12:13:28;;;;;;;22.92;15.13;;;358.90;870.40;;;;;;5096308;28;20020;-61